createdAt,value
2022-12-03T00:01:50.627Z,-10.07
2022-12-03T00:04:17.579Z,-10.29
2022-12-03T00:06:44.559Z,-10.55
2022-12-03T00:09:11.737Z,-10.99
2022-12-03T00:11:38.746Z,-10.54
2022-12-03T00:14:05.832Z,-10.65
2022-12-03T00:16:32.897Z,-10.46
2022-12-03T00:18:59.921Z,-10.44
2022-12-03T00:21:26.969Z,-10.48
2022-12-03T00:23:53.997Z,-10.86
2022-12-03T00:26:21.065Z,-10.80
2022-12-03T00:28:48.977Z,-10.49
2022-12-03T00:31:16.189Z,-10.65
2022-12-03T00:33:43.280Z,-10.37
2022-12-03T00:36:10.411Z,-10.31
2022-12-03T00:38:37.436Z,-10.52
2022-12-03T00:41:04.483Z,-10.67
2022-12-03T00:43:31.463Z,-10.51
2022-12-03T00:45:58.564Z,-11.01
2022-12-03T00:48:25.919Z,-11.05
2022-12-03T00:50:52.917Z,-10.59
2022-12-03T00:53:19.870Z,-10.65
2022-12-03T00:55:46.864Z,-10.57
2022-12-03T00:58:13.882Z,-10.80
2022-12-03T01:00:40.871Z,-10.97
2022-12-03T01:03:07.882Z,-11.13
2022-12-03T01:05:34.916Z,-10.79
2022-12-03T01:08:02.009Z,-11.13
2022-12-03T01:10:29.027Z,-11.06
2022-12-03T01:12:56.065Z,-11.09
2022-12-03T01:15:23.088Z,-11.09
2022-12-03T01:17:50.077Z,-11.06
2022-12-03T01:20:17.072Z,-10.72
2022-12-03T01:22:44.113Z,-10.93
2022-12-03T01:25:11.550Z,-11.27
2022-12-03T01:27:39.251Z,-11.04
2022-12-03T01:30:07.080Z,-11.10
2022-12-03T01:32:34.083Z,-10.86
2022-12-03T01:35:01.094Z,-10.61
2022-12-03T01:37:28.202Z,-10.79
2022-12-03T01:39:55.249Z,-10.87
2022-12-03T01:42:26.592Z,-10.83
2022-12-03T01:44:56.847Z,-10.49
2022-12-03T01:47:37.156Z,-10.79
2022-12-03T01:50:17.976Z,-10.37
2022-12-03T01:52:45.611Z,-10.36
2022-12-03T01:55:18.433Z,-10.47
2022-12-03T01:57:51.719Z,-10.57
2022-12-03T02:00:22.707Z,-11.06
2022-12-03T02:02:52.705Z,-10.87
2022-12-03T02:05:23.612Z,-10.69
2022-12-03T02:07:51.467Z,-10.77
2022-12-03T02:10:23.606Z,-10.93
2022-12-03T02:13:01.157Z,-11.53
2022-12-03T02:15:28.400Z,-11.25
2022-12-03T02:17:55.826Z,-11.39
2022-12-03T02:20:23.117Z,-11.58
2022-12-03T02:22:53.035Z,-11.93
2022-12-03T02:25:23.448Z,-11.48
2022-12-03T02:27:53.178Z,-11.30
2022-12-03T02:30:22.876Z,-11.45
2022-12-03T02:32:51.876Z,-11.75
2022-12-03T02:35:31.982Z,-12.06
2022-12-03T02:38:23.205Z,-11.91
2022-12-03T02:40:55.368Z,-12.30
2022-12-03T02:43:23.793Z,-12.22
2022-12-03T02:45:54.020Z,-12.05
2022-12-03T02:48:37.166Z,-12.44
2022-12-03T02:51:07.339Z,-12.30
2022-12-03T02:53:47.462Z,-12.34
2022-12-03T02:56:18.515Z,-12.52
2022-12-03T02:58:48.495Z,-12.20
2022-12-03T03:01:15.865Z,-12.34
2022-12-03T03:03:45.010Z,-12.02
2022-12-03T03:06:12.634Z,-11.93
2022-12-03T03:08:41.884Z,-11.92
2022-12-03T03:11:08.890Z,-11.41
2022-12-03T03:13:36.811Z,-11.38
2022-12-03T03:16:05.907Z,-12.18
2022-12-03T03:18:33.886Z,-12.22
2022-12-03T03:21:01.321Z,-12.40
2022-12-03T03:23:28.486Z,-12.20
2022-12-03T03:26:10.507Z,-12.75
2022-12-03T03:28:41.773Z,-12.80
2022-12-03T03:31:11.383Z,-12.68
2022-12-03T03:33:41.657Z,-12.26
2022-12-03T03:36:09.416Z,-12.21
2022-12-03T03:38:37.223Z,-12.81
2022-12-03T03:41:06.978Z,-12.70
2022-12-03T03:43:35.651Z,-12.73
2022-12-03T03:46:05.559Z,-12.92
2022-12-03T03:48:34.679Z,-12.44
2022-12-03T03:51:08.818Z,-12.59
2022-12-03T03:53:41.385Z,-12.32
2022-12-03T03:56:09.782Z,-12.27
2022-12-03T03:58:37.899Z,-12.52
2022-12-03T04:01:05.053Z,-12.53
2022-12-03T04:03:32.207Z,-12.14
2022-12-03T04:05:59.175Z,-12.65
2022-12-03T04:08:26.449Z,-12.72
2022-12-03T04:11:11.887Z,-12.81
2022-12-03T04:13:38.958Z,-12.85
2022-12-03T04:16:06.224Z,-12.97
2022-12-03T04:18:45.379Z,-12.80
2022-12-03T04:21:36.215Z,-12.91
2022-12-03T04:24:04.387Z,-12.79
2022-12-03T04:26:50.041Z,-12.60
2022-12-03T04:29:18.994Z,-12.74
2022-12-03T04:32:04.319Z,-12.51
2022-12-03T04:34:50.010Z,-12.51
2022-12-03T04:37:17.099Z,-11.87
2022-12-03T04:39:44.311Z,-11.91
2022-12-03T04:42:11.464Z,-12.30
2022-12-03T04:44:38.480Z,-12.29
2022-12-03T04:47:07.116Z,-12.27
2022-12-03T04:49:35.819Z,-11.66
2022-12-03T04:52:02.818Z,-11.28
2022-12-03T04:54:30.562Z,-11.35
2022-12-03T04:56:57.574Z,-11.17
2022-12-03T04:59:24.575Z,-12.07
2022-12-03T05:01:51.690Z,-11.58
2022-12-03T05:04:20.901Z,-11.18
2022-12-03T05:06:48.152Z,-12.09
2022-12-03T05:09:15.431Z,-12.22
2022-12-03T05:11:43.159Z,-11.80
2022-12-03T05:14:11.198Z,-11.76
2022-12-03T05:16:38.769Z,-11.66
2022-12-03T05:19:09.993Z,-11.49
2022-12-03T05:21:36.955Z,-11.12
2022-12-03T05:24:04.309Z,-11.38
2022-12-03T05:26:31.347Z,-11.48
2022-12-03T05:28:58.381Z,-11.65
2022-12-03T05:31:25.535Z,-11.55
2022-12-03T05:33:52.675Z,-11.29
2022-12-03T05:36:19.663Z,-11.32
2022-12-03T05:38:46.648Z,-11.61
2022-12-03T05:41:32.157Z,-11.84
2022-12-03T05:43:59.190Z,-12.12
2022-12-03T05:46:26.254Z,-12.11
2022-12-03T05:48:53.363Z,-12.36
2022-12-03T05:51:20.324Z,-12.09
2022-12-03T05:53:47.282Z,-11.87
2022-12-03T05:56:14.279Z,-12.08
2022-12-03T05:58:41.269Z,-12.01
2022-12-03T06:01:08.526Z,-11.96
2022-12-03T06:03:36.043Z,-11.75
2022-12-03T06:06:03.179Z,-11.83
2022-12-03T06:08:30.375Z,-11.62
2022-12-03T06:10:57.351Z,-12.03
2022-12-03T06:13:24.324Z,-12.10
2022-12-03T06:15:51.382Z,-11.86
2022-12-03T06:18:18.583Z,-11.58
2022-12-03T06:20:45.569Z,-11.41
2022-12-03T06:23:12.679Z,-11.43
2022-12-03T06:25:39.652Z,-11.19
2022-12-03T06:28:07.483Z,-10.89
2022-12-03T06:30:35.951Z,-10.71
2022-12-03T06:33:03.149Z,-11.07
2022-12-03T06:35:30.239Z,-11.17
2022-12-03T06:37:57.286Z,-11.13
2022-12-03T06:40:25.250Z,-11.10
2022-12-03T06:42:52.507Z,-10.83
2022-12-03T06:45:19.550Z,-10.71
2022-12-03T06:47:46.739Z,-10.11
2022-12-03T06:50:14.015Z,-10.33
2022-12-03T06:52:41.278Z,-10.33
2022-12-03T06:55:08.873Z,-10.11
2022-12-03T06:57:35.989Z,-10.26
2022-12-03T07:00:05.998Z,-10.41
2022-12-03T07:02:32.979Z,-10.14
2022-12-03T07:05:00.012Z,-9.68
2022-12-03T07:07:27.047Z,-9.70
2022-12-03T07:09:54.164Z,-10.00
2022-12-03T07:12:21.153Z,-10.39
2022-12-03T07:14:48.200Z,-10.20
2022-12-03T07:17:15.213Z,-10.33
2022-12-03T07:19:42.671Z,-10.30
2022-12-03T07:22:09.670Z,-9.82
2022-12-03T07:24:36.755Z,-10.17
2022-12-03T07:27:03.822Z,-9.84
2022-12-03T07:29:30.879Z,-9.69
2022-12-03T07:31:57.930Z,-9.88
2022-12-03T07:34:25.004Z,-10.00
2022-12-03T07:36:52.384Z,-10.08
2022-12-03T07:39:19.363Z,-10.05
2022-12-03T07:41:46.335Z,-9.95
2022-12-03T07:44:14.816Z,-10.22
2022-12-03T07:46:42.895Z,-9.89
2022-12-03T07:49:09.974Z,-9.93
2022-12-03T07:51:37.042Z,-10.27
2022-12-03T07:54:04.686Z,-10.40
2022-12-03T07:56:31.712Z,-10.09
2022-12-03T07:58:58.692Z,-9.92
2022-12-03T08:01:25.888Z,-10.14
2022-12-03T08:03:52.943Z,-10.32
2022-12-03T08:06:19.955Z,-10.22
2022-12-03T08:08:46.932Z,-10.28
2022-12-03T08:11:15.136Z,-9.91
2022-12-03T08:13:42.824Z,-9.89
2022-12-03T08:16:17.190Z,-9.43
2022-12-03T08:18:44.990Z,-9.44
2022-12-03T08:21:17.572Z,-8.98
2022-12-03T08:23:44.726Z,-9.15
2022-12-03T08:26:28.191Z,-9.72
2022-12-03T08:28:55.283Z,-9.43
2022-12-03T08:31:32.787Z,-9.69
2022-12-03T08:34:23.955Z,-9.44
2022-12-03T08:36:56.453Z,-9.38
2022-12-03T08:39:29.391Z,-9.52
2022-12-03T08:42:27.536Z,-9.44
2022-12-03T08:44:55.741Z,-9.47
2022-12-03T08:47:24.729Z,-9.23
2022-12-03T08:49:55.962Z,-9.23
2022-12-03T08:52:30.218Z,-9.16
2022-12-03T08:54:57.655Z,-8.91
2022-12-03T08:57:34.716Z,-8.69
2022-12-03T09:00:20.489Z,-8.69
2022-12-03T09:03:11.015Z,-8.87
2022-12-03T09:05:38.007Z,-8.94
2022-12-03T09:08:05.147Z,-8.63
2022-12-03T09:10:32.157Z,-8.52
2022-12-03T09:12:59.769Z,-8.48
2022-12-03T09:15:26.942Z,-8.99
2022-12-03T09:17:54.484Z,-8.78
2022-12-03T09:20:21.473Z,-8.93
2022-12-03T09:22:48.488Z,-8.55
2022-12-03T09:25:16.137Z,-8.42
2022-12-03T09:27:43.136Z,-8.16
2022-12-03T09:30:10.465Z,-8.34
2022-12-03T09:32:37.671Z,-8.62
2022-12-03T09:35:05.618Z,-8.47
2022-12-03T09:37:32.625Z,-7.98
2022-12-03T09:39:59.765Z,-8.12
2022-12-03T09:42:27.238Z,-7.89
2022-12-03T09:44:54.738Z,-7.64
2022-12-03T09:47:22.509Z,-7.33
2022-12-03T09:49:49.545Z,-7.75
2022-12-03T09:52:25.496Z,-7.31
2022-12-03T09:54:53.931Z,-7.63
2022-12-03T09:57:21.236Z,-7.73
2022-12-03T09:59:48.322Z,-7.18
2022-12-03T10:02:26.912Z,-6.82
2022-12-03T10:04:54.629Z,-6.96
2022-12-03T10:07:22.603Z,-7.26
2022-12-03T10:09:49.730Z,-6.98
2022-12-03T10:12:23.136Z,-6.99
2022-12-03T10:14:50.690Z,-7.07
2022-12-03T10:17:17.925Z,-6.68
2022-12-03T10:19:45.200Z,-6.80
2022-12-03T10:22:12.616Z,-6.69
2022-12-03T10:24:39.722Z,-7.05
2022-12-03T10:27:29.592Z,-7.16
2022-12-03T10:29:59.428Z,-7.44
2022-12-03T10:32:46.956Z,-6.68
2022-12-03T10:35:23.174Z,-7.28
2022-12-03T10:37:57.284Z,-7.09
2022-12-03T10:40:28.747Z,-7.46
2022-12-03T10:43:19.015Z,-7.29
2022-12-03T10:45:48.008Z,-7.63
2022-12-03T10:48:25.506Z,-7.48
2022-12-03T10:51:02.033Z,-7.35
2022-12-03T10:53:32.475Z,-7.25
2022-12-03T10:56:06.124Z,-7.02
2022-12-03T10:58:38.183Z,-7.23
2022-12-03T11:01:21.888Z,-7.23
2022-12-03T11:03:50.088Z,-7.38
2022-12-03T11:06:20.416Z,-7.26
2022-12-03T11:08:56.741Z,-7.02
2022-12-03T11:11:26.664Z,-6.93
2022-12-03T11:13:56.345Z,-7.22
2022-12-03T11:16:42.071Z,-6.77
2022-12-03T11:19:40.912Z,-6.75
2022-12-03T11:22:17.572Z,-6.87
2022-12-03T11:24:44.585Z,-6.85
2022-12-03T11:27:16.960Z,-6.69
2022-12-03T11:29:58.957Z,-6.28
2022-12-03T11:32:38.132Z,-6.53
2022-12-03T11:35:54.363Z,-6.66
2022-12-03T11:38:52.867Z,-6.33
2022-12-03T11:41:26.428Z,-6.28
2022-12-03T11:43:53.471Z,-6.17
2022-12-03T11:46:44.773Z,-6.20
2022-12-03T11:49:33.491Z,-5.91
2022-12-03T11:52:02.998Z,-6.05
2022-12-03T11:54:34.583Z,-6.26
2022-12-03T11:57:02.701Z,-5.97
2022-12-03T11:59:29.798Z,-5.82
2022-12-03T12:01:56.863Z,-6.26
2022-12-03T12:04:38.111Z,-5.96
2022-12-03T12:07:05.300Z,-5.73
2022-12-03T12:09:53.851Z,-5.59
2022-12-03T12:12:54.415Z,-5.70
2022-12-03T12:15:44.323Z,-5.69
2022-12-03T12:18:35.866Z,-5.51
2022-12-03T12:21:42.148Z,-5.34
2022-12-03T12:24:29.386Z,-5.57
2022-12-03T12:26:58.562Z,-5.76
2022-12-03T12:29:25.638Z,-6.03
2022-12-03T12:31:59.782Z,-5.98
2022-12-03T12:34:26.855Z,-5.59
2022-12-03T12:36:56.940Z,-5.37
2022-12-03T12:39:23.965Z,-5.29
2022-12-03T12:41:51.726Z,-5.49
2022-12-03T12:44:23.432Z,-5.38
2022-12-03T12:46:53.812Z,-5.13
2022-12-03T12:49:26.843Z,-5.13
2022-12-03T12:51:54.055Z,-5.27
2022-12-03T12:54:21.200Z,-5.12
2022-12-03T12:56:50.352Z,-5.06
2022-12-03T12:59:20.668Z,-5.06
2022-12-03T13:01:49.929Z,-5.08
2022-12-03T13:04:22.751Z,-4.91
2022-12-03T13:06:54.014Z,-4.79
2022-12-03T13:09:26.013Z,-4.82
2022-12-03T13:12:04.168Z,-4.96
2022-12-03T13:14:35.196Z,-5.18
2022-12-03T13:17:11.018Z,-5.75
2022-12-03T13:19:48.306Z,-5.67
2022-12-03T13:22:22.668Z,-5.51
2022-12-03T13:24:51.100Z,-6.09
2022-12-03T13:27:18.149Z,-5.67
2022-12-03T13:29:57.302Z,-5.85
2022-12-03T13:32:30.959Z,-5.75
2022-12-03T13:35:12.902Z,-5.24
2022-12-03T13:37:39.922Z,-5.13
2022-12-03T13:40:30.760Z,-5.25
2022-12-03T13:42:59.556Z,-5.11
2022-12-03T13:45:37.525Z,-5.04
2022-12-03T13:48:35.568Z,-5.00
2022-12-03T13:51:34.888Z,-5.14
2022-12-03T13:54:02.708Z,-5.42
2022-12-03T13:56:31.926Z,-5.15
2022-12-03T13:59:00.633Z,-5.02
2022-12-03T14:01:28.639Z,-5.11
2022-12-03T14:03:56.496Z,-5.38
2022-12-03T14:06:23.578Z,-5.23
2022-12-03T14:08:51.558Z,-4.93
2022-12-03T14:11:37.304Z,-4.91
2022-12-03T14:14:04.343Z,-4.91
2022-12-03T14:16:31.531Z,-4.79
2022-12-03T14:18:58.631Z,-5.24
2022-12-03T14:21:25.595Z,-5.05
2022-12-03T14:23:52.612Z,-4.90
2022-12-03T14:26:19.653Z,-4.74
2022-12-03T14:28:46.669Z,-4.57
2022-12-03T14:31:13.774Z,-4.47
2022-12-03T14:33:40.806Z,-4.57
2022-12-03T14:36:08.097Z,-4.55
2022-12-03T14:38:35.082Z,-4.71
2022-12-03T14:41:02.244Z,-4.71
2022-12-03T14:43:29.322Z,-4.62
2022-12-03T14:45:57.038Z,-4.56
2022-12-03T14:48:24.057Z,-4.52
2022-12-03T14:50:51.038Z,-4.46
2022-12-03T14:53:21.439Z,-4.52
2022-12-03T14:55:51.130Z,-4.48
2022-12-03T14:58:18.124Z,-4.54
2022-12-03T15:00:45.115Z,-4.47
2022-12-03T15:03:12.136Z,-4.41
2022-12-03T15:05:39.156Z,-4.50
2022-12-03T15:08:06.317Z,-4.76
2022-12-03T15:10:33.349Z,-4.49
2022-12-03T15:13:00.379Z,-4.26
2022-12-03T15:15:27.433Z,-4.33
2022-12-03T15:17:54.402Z,-4.34
2022-12-03T15:20:21.427Z,-4.32
2022-12-03T15:22:48.436Z,-4.37
2022-12-03T15:25:16.148Z,-4.16
2022-12-03T15:27:43.659Z,-4.47
2022-12-03T15:30:10.758Z,-4.41
2022-12-03T15:32:39.879Z,-4.45
2022-12-03T15:35:07.431Z,-5.01
2022-12-03T15:37:34.556Z,-4.61
2022-12-03T15:40:01.552Z,-4.61
2022-12-03T15:42:30.267Z,-4.46
2022-12-03T15:44:57.299Z,-4.54
2022-12-03T15:47:24.532Z,-4.66
2022-12-03T15:49:51.847Z,-4.44
2022-12-03T15:52:19.081Z,-4.42
2022-12-03T15:54:46.526Z,-4.17
2022-12-03T15:57:13.519Z,-4.07
2022-12-03T15:59:43.629Z,-4.26
2022-12-03T16:02:13.837Z,-4.26
2022-12-03T16:04:41.027Z,-4.69
2022-12-03T16:07:08.014Z,-4.65
2022-12-03T16:09:35.012Z,-4.77
2022-12-03T16:12:02.029Z,-4.88
2022-12-03T16:14:29.028Z,-5.03
2022-12-03T16:16:56.124Z,-4.81
2022-12-03T16:19:23.100Z,-4.93
2022-12-03T16:21:51.271Z,-4.84
2022-12-03T16:24:18.271Z,-4.85
2022-12-03T16:26:45.315Z,-4.64
2022-12-03T16:29:12.985Z,-4.74
2022-12-03T16:31:41.462Z,-4.58
2022-12-03T16:34:08.478Z,-4.86
2022-12-03T16:36:36.086Z,-4.93
2022-12-03T16:39:03.651Z,-4.92
2022-12-03T16:41:30.671Z,-4.93
2022-12-03T16:43:57.764Z,-5.05
2022-12-03T16:46:27.658Z,-4.84
2022-12-03T16:48:57.980Z,-5.45
2022-12-03T16:51:26.802Z,-5.33
2022-12-03T16:53:54.582Z,-5.42
2022-12-03T16:56:21.611Z,-5.46
2022-12-03T16:58:48.640Z,-5.39
2022-12-03T17:01:15.692Z,-5.21
2022-12-03T17:03:42.718Z,-5.15
2022-12-03T17:06:09.694Z,-5.41
2022-12-03T17:08:36.740Z,-5.03
2022-12-03T17:11:05.063Z,-4.96
2022-12-03T17:13:32.096Z,-4.86
2022-12-03T17:16:00.933Z,-4.85
2022-12-03T17:18:28.964Z,-5.16
2022-12-03T17:20:56.053Z,-5.05
2022-12-03T17:23:23.271Z,-5.16
2022-12-03T17:26:09.016Z,-4.91
2022-12-03T17:28:36.094Z,-4.89
2022-12-03T17:31:03.156Z,-4.95
2022-12-03T17:33:30.265Z,-5.17
2022-12-03T17:35:57.296Z,-5.00
2022-12-03T17:38:24.284Z,-5.25
2022-12-03T17:40:52.556Z,-5.24
2022-12-03T17:43:19.531Z,-5.03
2022-12-03T17:45:46.542Z,-5.18
2022-12-03T17:48:13.587Z,-5.19
2022-12-03T17:50:40.609Z,-4.98
2022-12-03T17:53:10.513Z,-4.93
2022-12-03T17:55:44.535Z,-5.03
2022-12-03T17:58:12.840Z,-4.90
2022-12-03T18:00:40.351Z,-4.74
2022-12-03T18:03:07.472Z,-5.05
2022-12-03T18:05:34.535Z,-5.16
2022-12-03T18:08:01.654Z,-5.21
2022-12-03T18:10:28.767Z,-5.02
2022-12-03T18:13:01.291Z,-5.25
2022-12-03T18:15:30.355Z,-5.26
2022-12-03T18:17:57.403Z,-5.35
2022-12-03T18:20:24.416Z,-5.66
2022-12-03T18:22:51.676Z,-5.51
2022-12-03T18:25:18.896Z,-5.45
2022-12-03T18:27:46.764Z,-5.47
2022-12-03T18:30:14.091Z,-5.76
2022-12-03T18:32:41.172Z,-5.77
2022-12-03T18:35:08.499Z,-5.66
2022-12-03T18:37:35.790Z,-5.48
2022-12-03T18:40:12.432Z,-5.67
2022-12-03T18:42:40.277Z,-5.41
2022-12-03T18:45:11.406Z,-5.23
2022-12-03T18:47:38.630Z,-5.28
2022-12-03T18:50:08.092Z,-5.33
2022-12-03T18:52:35.582Z,-5.50
2022-12-03T18:55:02.539Z,-5.44
2022-12-03T18:57:30.144Z,-5.21
2022-12-03T18:59:57.446Z,-5.12
2022-12-03T19:03:01.928Z,-5.22
2022-12-03T19:05:11.759Z,-5.38
2022-12-03T19:07:38.823Z,-5.20
2022-12-03T19:10:06.574Z,-5.01
2022-12-03T19:12:33.827Z,-5.22
2022-12-03T19:15:01.235Z,-5.08
2022-12-03T19:17:31.662Z,-5.23
2022-12-03T19:19:59.748Z,-5.10
2022-12-03T19:22:26.746Z,-5.25
2022-12-03T19:24:53.745Z,-5.28
2022-12-03T19:27:20.774Z,-5.16
2022-12-03T19:29:51.128Z,-5.01
2022-12-03T19:32:18.207Z,-5.22
2022-12-03T19:34:45.234Z,-5.18
2022-12-03T19:37:12.304Z,-5.20
2022-12-03T19:39:39.300Z,-5.15
2022-12-03T19:42:06.294Z,-5.32
2022-12-03T19:44:33.367Z,-5.05
2022-12-03T19:49:41.613Z,-5.01
2022-12-03T19:52:08.693Z,-5.18
2022-12-03T19:54:37.028Z,-5.10
2022-12-03T19:57:04.109Z,-5.28
2022-12-03T19:59:31.123Z,-5.25
2022-12-03T20:01:58.367Z,-5.42
2022-12-03T20:04:25.438Z,-5.09
2022-12-03T20:06:52.459Z,-4.84
2022-12-03T20:09:20.831Z,-4.77
2022-12-03T20:12:07.836Z,-5.24
2022-12-03T20:14:34.791Z,-5.55
2022-12-03T20:17:02.120Z,-5.40
2022-12-03T20:19:29.121Z,-5.25
2022-12-03T20:22:02.161Z,-5.38
2022-12-03T20:24:29.611Z,-5.38
2022-12-03T20:26:56.632Z,-5.18
2022-12-03T20:29:23.611Z,-5.12
2022-12-03T20:31:50.718Z,-5.01
2022-12-03T20:34:17.771Z,-5.14
2022-12-03T20:36:45.611Z,-5.14
2022-12-03T20:39:12.784Z,-5.15
2022-12-03T20:41:39.728Z,-5.09
2022-12-03T20:44:07.681Z,-4.86
2022-12-03T20:46:35.279Z,-4.77
2022-12-03T20:49:02.724Z,-4.78
2022-12-03T20:51:30.948Z,-4.78
2022-12-03T20:54:00.036Z,-4.70
2022-12-03T20:56:31.577Z,-4.80
2022-12-03T20:59:08.284Z,-5.52
2022-12-03T21:01:36.450Z,-5.50
2022-12-03T21:04:06.456Z,-5.23
2022-12-03T21:06:38.270Z,-4.95
2022-12-03T21:09:08.382Z,-4.78
2022-12-03T21:11:36.467Z,-4.82
2022-12-03T21:14:04.248Z,-5.23
2022-12-03T21:17:05.874Z,-5.15
2022-12-03T21:19:30.099Z,-4.94
2022-12-03T21:21:57.148Z,-4.66
2022-12-03T21:24:24.631Z,-4.64
2022-12-03T21:26:51.685Z,-4.67
2022-12-03T21:29:18.879Z,-4.68
2022-12-03T21:31:46.732Z,-5.20
2022-12-03T21:34:13.865Z,-5.24
2022-12-03T21:36:40.935Z,-5.18
2022-12-03T21:39:08.085Z,-5.01
2022-12-03T21:41:37.821Z,-4.81
2022-12-03T21:44:04.926Z,-4.58
2022-12-03T21:47:11.087Z,-5.16
2022-12-03T21:49:20.339Z,-5.21
2022-12-03T21:51:47.323Z,-5.13
2022-12-03T21:54:16.757Z,-5.20
2022-12-03T21:56:43.869Z,-5.99
2022-12-03T21:59:10.874Z,-5.77
2022-12-03T22:01:39.671Z,-5.55
2022-12-03T22:04:09.909Z,-5.29
2022-12-03T22:06:37.203Z,-5.26
2022-12-03T22:09:04.580Z,-5.18
2022-12-03T22:11:32.614Z,-5.83
2022-12-03T22:13:59.590Z,-5.47
2022-12-03T22:16:26.590Z,-5.12
2022-12-03T22:18:54.344Z,-5.27
2022-12-03T22:21:21.929Z,-5.13
2022-12-03T22:23:48.878Z,-5.21
2022-12-03T22:26:17.768Z,-5.49
2022-12-03T22:28:46.314Z,-5.38
2022-12-03T22:31:14.020Z,-5.23
2022-12-03T22:33:41.402Z,-5.36
2022-12-03T22:36:16.401Z,-5.46
2022-12-03T22:38:45.711Z,-5.46
2022-12-03T22:41:13.674Z,-5.74
2022-12-03T22:43:40.783Z,-5.54
2022-12-03T22:46:17.827Z,-5.26
2022-12-03T22:48:46.625Z,-5.61
2022-12-03T22:51:18.063Z,-5.63
2022-12-03T22:53:45.145Z,-5.47
2022-12-03T22:56:12.222Z,-5.47
2022-12-03T22:58:40.578Z,-5.66
2022-12-03T23:01:08.193Z,-5.68
2022-12-03T23:03:36.138Z,-5.66
2022-12-03T23:06:10.783Z,-5.50
2022-12-03T23:08:38.123Z,-5.67
2022-12-03T23:11:06.064Z,-5.81
2022-12-03T23:13:33.160Z,-5.76
2022-12-03T23:16:00.285Z,-5.74
2022-12-03T23:18:27.416Z,-5.68
2022-12-03T23:20:56.582Z,-5.86
2022-12-03T23:23:26.749Z,-5.92
2022-12-03T23:26:10.818Z,-5.98
2022-12-03T23:28:39.178Z,-5.94
2022-12-03T23:31:06.304Z,-5.89
2022-12-03T23:33:38.256Z,-5.87
2022-12-03T23:36:06.671Z,-5.89
2022-12-03T23:38:33.844Z,-5.89
2022-12-03T23:41:08.729Z,-5.93
2022-12-03T23:43:35.996Z,-6.01
2022-12-03T23:46:12.143Z,-6.10
2022-12-03T23:48:39.717Z,-5.95
2022-12-03T23:51:09.210Z,-5.91
2022-12-03T23:53:37.320Z,-5.86
2022-12-03T23:56:09.391Z,-5.81
2022-12-03T23:58:36.528Z,-5.81
